Time;durP1;ratioP1;P1;durP2;ratioP2;P2;SDS_P1;SDS_P2;PMS_P1;PMS_P2;Temp;Humidity;BMP_temperature;BMP_pressure;BME280_temperature;BME280_humidity;BME280_pressure;Samples;Min_cycle;Max_cycle;Signal;HPM_P1;HPM_P2
2022/05/18 00:00:52;;;;;;;0.73;0.50;;;;;;;8.17;38.82;102030.90;1656063;85;20927;-77
2022/05/18 00:03:23;;;;;;;1.95;0.85;;;;;;;8.12;38.87;102031.24;1633525;87;20898;-76
2022/05/18 00:05:49;;;;;;;1.52;0.78;;;;;;;8.04;38.90;102036.69;1655274;86;20904;-76
2022/05/18 00:08:15;;;;;;;4.33;0.87;;;;;;;7.95;39.02;102038.67;1665652;86;20948;-76
2022/05/18 00:10:46;;;;;;;2.80;0.60;;;;;;;7.90;39.07;102042.45;1665136;86;20952;-76
2022/05/18 00:13:12;;;;;;;7.58;1.10;;;;;;;7.88;39.13;102038.12;1657173;85;20956;-76
2022/05/18 00:15:40;;;;;;;1.60;0.78;;;;;;;7.85;39.16;102038.06;1658263;85;21472;-76
2022/05/18 00:18:07;;;;;;;1.05;0.72;;;;;;;7.80;39.27;102044.88;1650965;85;20905;-76
2022/05/18 00:20:34;;;;;;;3.15;0.82;;;;;;;7.76;39.26;102046.94;1679903;83;20904;-76
2022/05/18 00:23:02;;;;;;;2.15;1.07;;;;;;;7.64;39.34;102036.86;1684470;84;20933;-76
2022/05/18 00:25:37;;;;;;;1.62;0.60;;;;;;;7.59;39.46;102046.20;1683967;84;21094;-76
2022/05/18 00:28:03;;;;;;;1.07;0.70;;;;;;;7.53;39.54;102042.22;1688278;84;21595;-75
2022/05/18 00:30:31;;;;;;;2.12;0.68;;;;;;;7.51;39.54;102051.62;1687349;84;21063;-75
2022/05/18 00:33:06;;;;;;;1.85;0.78;;;;;;;7.50;39.61;102060.18;1689817;83;21035;-75
2022/05/18 00:35:34;;;;;;;1.52;0.90;;;;;;;7.46;39.63;102062.23;1681416;83;21023;-75
2022/05/18 00:38:01;;;;;;;1.57;0.50;;;;;;;7.40;39.70;102065.98;1685334;83;21106;-76
2022/05/18 00:40:30;;;;;;;2.20;0.80;;;;;;;7.31;39.68;102066.66;1679710;83;21111;-76
2022/05/18 00:42:56;;;;;;;1.62;0.70;;;;;;;7.25;39.80;102068.27;1669503;84;21126;-76
2022/05/18 00:45:22;;;;;;;1.03;0.60;;;;;;;7.16;39.89;102066.37;1687873;84;21099;-76
2022/05/18 00:47:48;;;;;;;1.15;0.70;;;;;;;7.12;40.02;102063.27;1686745;83;21119;-76
2022/05/18 00:50:28;;;;;;;0.80;0.70;;;;;;;7.08;40.07;102064.05;1688595;84;20964;-76
2022/05/18 00:53:00;;;;;;;1.12;0.80;;;;;;;7.04;40.04;102066.10;1682499;84;20994;-75
2022/05/18 00:55:29;;;;;;;2.52;1.30;;;;;;;6.92;40.08;102069.27;1678434;83;21067;-76
2022/05/18 00:58:04;;;;;;;1.37;0.47;;;;;;;6.82;40.16;102072.47;1665316;85;21086;-75
2022/05/18 01:00:35;;;;;;;2.17;0.95;;;;;;;6.73;40.26;102077.43;1673159;84;21066;-76
2022/05/18 01:03:07;;;;;;;3.40;1.02;;;;;;;6.68;40.33;102082.88;1688203;84;21056;-76
2022/05/18 01:05:35;;;;;;;1.22;0.90;;;;;;;6.60;40.40;102086.97;1686875;83;21122;-76
2022/05/18 01:08:03;;;;;;;3.33;1.02;;;;;;;6.53;40.49;102079.94;1687954;84;21067;-77
2022/05/18 01:10:29;;;;;;;2.98;1.00;;;;;;;6.43;40.53;102080.13;1689059;83;21031;-77
2022/05/18 01:12:59;;;;;;;3.17;0.88;;;;;;;6.33;40.60;102083.30;1671415;84;20943;-77
2022/05/18 01:15:26;;;;;;;1.52;1.00;;;;;;;6.22;40.74;102088.20;1669913;84;21119;-76
2022/05/18 01:17:58;;;;;;;1.37;0.90;;;;;;;6.16;40.78;102103.88;1692278;83;20898;-76
2022/05/18 01:20:31;;;;;;;1.62;0.80;;;;;;;6.04;40.75;102098.41;1691648;84;21017;-77
2022/05/18 01:23:26;;;;;;;1.95;1.00;;;;;;;5.88;40.81;102095.41;1686491;84;21107;-76
2022/05/18 01:26:16;;;;;;;1.82;0.90;;;;;;;5.79;40.93;102094.28;1682795;83;20942;-77
2022/05/18 01:28:52;;;;;;;2.40;1.07;;;;;;;5.69;41.02;102104.74;1694012;83;22115;-77
2022/05/18 01:31:53;;;;;;;2.00;1.10;;;;;;;5.64;41.07;102106.31;1689030;84;21406;-77
2022/05/18 01:34:23;;;;;;;3.27;0.75;;;;;;;5.53;41.13;102103.85;1694533;83;21690;-77
2022/05/18 01:36:50;;;;;;;1.52;1.17;;;;;;;5.41;41.17;102106.06;1694373;83;20953;-77
2022/05/18 01:39:24;;;;;;;1.22;0.78;;;;;;;5.32;41.36;102115.23;1694600;83;20913;-77
2022/05/18 01:42:05;;;;;;;1.57;1.05;;;;;;;5.27;41.46;102110.78;1694723;83;20913;-76
2022/05/18 01:44:32;;;;;;;1.37;0.80;;;;;;;5.22;41.57;102117.06;1688586;83;21438;-77
2022/05/18 01:46:58;;;;;;;2.15;1.20;;;;;;;5.17;41.53;102117.36;1689177;84;21755;-75
2022/05/18 01:49:24;;;;;;;3.47;1.20;;;;;;;5.10;41.65;102126.11;1695443;83;20953;-76
2022/05/18 01:51:53;;;;;;;3.52;1.20;;;;;;;5.03;41.70;102125.45;1694823;84;20889;-75
2022/05/18 01:54:21;;;;;;;1.57;1.00;;;;;;;4.97;41.82;102125.73;1694502;84;20914;-76
2022/05/18 01:56:47;;;;;;;1.50;0.90;;;;;;;4.90;41.84;102121.64;1695078;83;20941;-76
2022/05/18 01:59:13;;;;;;;2.17;1.00;;;;;;;4.84;41.89;102126.16;1694626;83;20945;-75
2022/05/18 02:01:48;;;;;;;5.75;0.95;;;;;;;4.81;42.04;102130.32;1694417;84;20945;-75
2022/05/18 02:04:15;;;;;;;2.95;0.90;;;;;;;4.76;42.06;102133.14;1694913;83;20941;-76
2022/05/18 02:06:41;;;;;;;2.00;0.98;;;;;;;4.70;42.11;102133.81;1694798;84;20953;-76
2022/05/18 02:09:16;;;;;;;1.62;0.90;;;;;;;4.59;42.09;102136.47;1692588;83;21052;-76
2022/05/18 02:11:39;;;;;;;1.02;0.70;;;;;;;4.47;42.16;102138.22;1691891;83;21173;-76
2022/05/18 02:14:05;;;;;;;1.20;0.73;;;;;;;4.23;42.02;102132.27;1695663;83;21095;-76
2022/05/18 02:16:31;;;;;;;3.22;1.00;;;;;;;4.23;42.02;102132.27;1682361;84;21538;-76
2022/05/18 02:18:57;;;;;;;3.47;0.73;;;;;;;4.16;42.47;102135.02;1685218;83;21621;-76
2022/05/18 02:21:23;;;;;;;3.23;1.30;;;;;;;4.10;42.53;102137.41;1689134;84;22684;-76
2022/05/18 02:23:49;;;;;;;1.05;0.80;;;;;;;4.05;42.57;102147.89;1688332;84;21535;-76
2022/05/18 02:26:18;;;;;;;2.30;0.80;;;;;;;3.98;42.56;102149.36;1695077;83;20984;-76
2022/05/18 02:28:48;;;;;;;5.40;0.78;;;;;;;3.88;42.64;102147.70;1694881;83;20914;-75
2022/05/18 02:31:15;;;;;;;1.15;1.02;;;;;;;3.81;42.84;102142.77;1694522;84;21028;-76
2022/05/18 02:33:41;;;;;;;2.70;0.98;;;;;;;3.74;42.79;102147.61;1694913;84;21539;-76
2022/05/18 02:36:10;;;;;;;8.03;1.60;;;;;;;3.63;42.87;102143.41;1683448;83;21040;-75
2022/05/18 02:38:38;;;;;;;1.80;0.98;;;;;;;3.61;42.94;102146.32;1692415;84;22324;-75
2022/05/18 02:41:04;;;;;;;1.52;1.17;;;;;;;3.60;43.14;102146.73;1712107;83;21015;-75
2022/05/18 02:43:31;;;;;;;3.30;0.90;;;;;;;3.61;43.13;102150.16;1694660;84;21068;-75
2022/05/18 02:46:18;;;;;;;1.87;0.98;;;;;;;3.55;43.23;102158.87;1696707;83;21551;-75
2022/05/18 02:48:46;;;;;;;5.60;1.07;;;;;;;3.48;43.20;102164.58;1694674;84;21366;-75
2022/05/18 02:51:15;;;;;;;1.45;1.00;;;;;;;3.37;43.22;102155.63;1694816;83;21454;-75
2022/05/18 02:53:42;;;;;;;2.77;1.55;;;;;;;3.30;43.34;102157.95;1695014;83;20985;-76
2022/05/18 02:56:13;;;;;;;1.45;1.12;;;;;;;3.24;43.43;102158.12;1692103;83;21037;-76
2022/05/18 02:58:48;;;;;;;2.50;1.00;;;;;;;3.15;43.48;102158.63;1694417;83;21491;-76
2022/05/18 03:01:22;;;;;;;1.92;1.20;;;;;;;3.14;43.70;102161.12;1694365;83;22189;-76
2022/05/18 03:03:49;;;;;;;5.17;3.02;;;;;;;3.15;43.69;102163.74;1696505;83;21421;-75
2022/05/18 03:06:19;;;;;;;7.92;4.25;;;;;;;3.11;43.88;102163.19;1696828;83;26293;-75
2022/05/18 03:08:46;;;;;;;9.95;4.20;;;;;;;3.05;43.89;102170.61;1685765;84;21390;-75
2022/05/18 03:11:13;;;;;;;6.37;3.42;;;;;;;3.02;43.93;102170.90;1690724;84;20936;-75
2022/05/18 03:13:40;;;;;;;4.72;3.02;;;;;;;3.00;44.04;102172.11;1688582;84;21462;-75
2022/05/18 03:16:07;;;;;;;4.12;2.15;;;;;;;2.99;44.04;102169.09;1682893;83;21780;-75
2022/05/18 03:18:34;;;;;;;5.22;2.67;;;;;;;2.94;44.16;102175.70;1697874;83;21409;-75
2022/05/18 03:23:45;;;;;;;6.10;3.35;;;;;;;2.96;44.49;102175.36;1698834;83;21509;-75
2022/05/18 03:26:15;;;;;;;6.53;3.52;;;;;;;2.97;44.54;102177.97;1671012;85;21438;-75
2022/05/18 03:28:45;;;;;;;4.87;2.40;;;;;;;2.97;44.51;102178.38;1678961;83;21417;-75
2022/05/18 03:31:11;;;;;;;3.35;2.37;;;;;;;2.92;44.46;102174.77;1682842;85;20902;-76
2022/05/18 03:33:39;;;;;;;3.67;2.47;;;;;;;2.88;44.60;102178.88;1681223;83;20918;-75
2022/05/18 03:36:08;;;;;;;3.72;2.45;;;;;;;2.93;44.79;102179.06;1682623;83;21559;-75
2022/05/18 03:38:34;;;;;;;5.25;3.10;;;;;;;2.99;44.74;102180.59;1671141;84;21430;-76
2022/05/18 03:41:00;;;;;;;8.13;4.60;;;;;;;2.96;44.76;102185.58;1669983;83;21392;-76
2022/05/18 03:43:28;;;;;;;20.00;9.08;;;;;;;2.92;44.80;102193.52;1682958;85;20929;-76
2022/05/18 03:45:55;;;;;;;23.40;11.65;;;;;;;2.93;45.05;102199.51;1682151;83;21431;-75
2022/05/18 03:48:23;;;;;;;26.30;13.95;;;;;;;2.95;45.07;102201.31;1680321;85;21028;-75
2022/05/18 03:50:50;;;;;;;28.73;15.33;;;;;;;2.98;45.13;102203.12;1683624;83;21619;-76
2022/05/18 03:53:16;;;;;;;23.40;12.90;;;;;;;3.01;45.20;102206.20;1666392;85;21608;-75
2022/05/18 03:55:43;;;;;;;;;;;;;;;3.02;45.41;102208.83;1674936;84;21557;-77
2022/05/18 03:58:11;;;;;;;11.93;5.50;;;;;;;3.08;46.46;102213.30;1666650;84;20186;-75
2022/05/18 04:00:39;;;;;;;10.23;6.22;;;;;;;3.13;45.65;102209.22;1699767;83;21603;-74
2022/05/18 04:03:08;;;;;;;8.85;4.55;;;;;;;3.23;45.69;102207.09;1685373;83;21575;-75
2022/05/18 04:05:37;;;;;;;7.80;4.53;;;;;;;3.40;45.83;102215.83;1689127;83;21605;-75
2022/05/18 04:08:05;;;;;;;8.28;5.10;;;;;;;3.57;45.94;102218.22;1675728;83;21126;-75
2022/05/18 04:10:32;;;;;;;6.67;3.67;;;;;;;3.72;46.04;102219.59;1684661;84;20995;-74
2022/05/18 04:12:58;;;;;;;8.45;4.30;;;;;;;3.83;46.05;102227.26;1697226;83;21044;-74
2022/05/18 04:15:24;;;;;;;10.23;4.40;;;;;;;3.94;46.04;102225.97;1704403;83;21012;-75
2022/05/18 04:17:50;;;;;;;6.95;4.45;;;;;;;4.03;46.13;102232.70;1668436;84;21132;-75
2022/05/18 04:20:21;;;;;;;12.07;5.87;;;;;;;4.10;46.19;102236.36;1690464;83;21093;-75
2022/05/18 04:22:49;;;;;;;9.50;5.70;;;;;;;4.14;46.15;102237.81;1692194;83;21616;-75
2022/05/18 04:25:19;;;;;;;11.78;6.12;;;;;;;4.16;46.19;102241.70;1691353;83;21448;-75
2022/05/18 04:27:47;;;;;;;15.70;6.03;;;;;;;4.19;46.26;102244.34;1691403;83;21080;-75
2022/05/18 04:30:19;;;;;;;13.15;4.85;;;;;;;4.23;46.32;102241.95;1696072;83;21718;-75
2022/05/18 04:32:46;;;;;;;15.40;3.62;;;;;;;4.28;46.47;102243.39;1691179;83;21084;-75
2022/05/18 04:35:16;;;;;;;7.83;3.08;;;;;;;4.36;46.62;102247.10;1691317;83;21004;-75
2022/05/18 04:37:45;;;;;;;5.42;2.52;;;;;;;4.45;46.68;102248.70;1681862;83;20969;-76
2022/05/18 04:40:13;;;;;;;4.92;2.60;;;;;;;4.55;46.71;102248.21;1681667;83;24681;-75
2022/05/18 04:42:39;;;;;;;6.53;2.87;;;;;;;4.62;46.84;102243.77;1683335;83;21339;-76
2022/05/18 04:45:09;;;;;;;4.60;2.63;;;;;;;4.74;47.03;102247.13;1683398;83;21576;-75
2022/05/18 04:47:35;;;;;;;3.33;1.92;;;;;;;4.88;47.13;102250.16;1681480;83;21853;-75
2022/05/18 04:50:01;;;;;;;8.17;2.00;;;;;;;5.02;47.19;102255.33;1664852;84;21024;-76
2022/05/18 04:52:27;;;;;;;6.23;1.90;;;;;;;5.16;47.29;102246.40;1681778;83;21708;-75
2022/05/18 04:54:53;;;;;;;4.80;2.10;;;;;;;5.29;47.35;102248.50;1680855;83;21068;-75
2022/05/18 04:57:19;;;;;;;2.77;1.77;;;;;;;5.46;47.39;102252.01;1684101;83;21071;-75
2022/05/18 04:59:46;;;;;;;3.75;1.77;;;;;;;5.62;47.48;102256.79;1695038;83;21081;-75
2022/05/18 05:02:12;;;;;;;3.17;2.08;;;;;;;5.85;47.53;102262.17;1686205;83;21601;-77
2022/05/18 05:04:38;;;;;;;5.08;2.27;;;;;;;6.17;47.72;102258.02;1684182;83;21067;-76
2022/05/18 05:07:05;;;;;;;9.35;2.85;;;;;;;6.69;47.88;102250.83;1684244;83;21047;-76
2022/05/18 05:09:31;;;;;;;7.22;3.00;;;;;;;7.41;48.07;102255.58;1688319;83;20881;-76
2022/05/18 05:11:57;;;;;;;6.20;2.65;;;;;;;8.27;48.21;102256.56;1691316;83;20909;-76
2022/05/18 05:14:24;;;;;;;11.90;4.27;;;;;;;9.17;48.34;102254.30;1669081;83;20903;-76
2022/05/18 05:16:50;;;;;;;5.85;3.08;;;;;;;10.03;48.38;102255.47;1691571;83;20882;-76
2022/05/18 05:19:16;;;;;;;;;;;;;;;10.83;48.38;102251.63;1696643;82;20953;-76
2022/05/18 05:21:43;;;;;;;7.93;4.00;;;;;;;11.62;48.09;102250.87;1687834;83;20270;-76
2022/05/18 05:24:15;;;;;;;5.50;3.77;;;;;;;12.40;48.32;102249.50;1694461;83;20960;-76
2022/05/18 05:26:42;;;;;;;6.42;3.80;;;;;;;13.19;48.23;102256.49;1649021;83;20911;-76
2022/05/18 05:29:09;;;;;;;5.20;2.27;;;;;;;13.95;48.22;102256.31;1689826;83;20926;-76
2022/05/18 05:31:36;;;;;;;2.90;1.60;;;;;;;14.67;48.13;102258.53;1694931;83;20980;-76
2022/05/18 05:34:03;;;;;;;4.10;1.50;;;;;;;15.28;47.99;102258.89;1686688;83;21027;-76
2022/05/18 05:36:30;;;;;;;3.75;1.32;;;;;;;15.76;47.85;102261.89;1689227;83;21104;-76
2022/05/18 05:38:57;;;;;;;;;;;;;;;16.36;47.79;102256.33;1639125;82;5001017;-76
2022/05/18 05:41:24;;;;;;;5.37;1.20;;;;;;;16.98;46.80;102258.45;1715741;83;20134;-76
2022/05/18 05:43:50;;;;;;;3.05;0.90;;;;;;;17.53;47.55;102266.18;1700562;83;20969;-76
2022/05/18 05:46:17;;;;;;;0.80;0.70;;;;;;;18.10;47.38;102264.63;1715435;83;21036;-76
2022/05/18 05:48:45;;;;;;;;;;;;;;;18.61;47.16;102263.08;1717566;83;21107;-76
2022/05/18 05:51:15;;;;;;;1.50;0.88;;;;;;;19.07;46.10;102261.95;1716754;83;20093;-77
2022/05/18 05:53:43;;;;;;;1.50;0.90;;;;;;;19.40;46.72;102274.63;1715294;83;21080;-76
2022/05/18 05:56:13;;;;;;;5.10;1.00;;;;;;;19.55;46.57;102276.02;1739477;82;21047;-76
2022/05/18 05:58:43;;;;;;;3.92;0.75;;;;;;;19.78;46.36;102275.77;1716312;82;20933;-76
2022/05/18 06:01:12;;;;;;;4.33;0.93;;;;;;;20.19;45.87;102273.73;1682800;83;20886;-76
2022/05/18 06:03:40;;;;;;;1.57;0.80;;;;;;;20.41;45.60;102272.19;1723871;82;20933;-76
2022/05/18 06:06:08;;;;;;;2.77;0.82;;;;;;;20.69;44.77;102280.08;1687507;84;20874;-76
2022/05/18 06:08:35;;;;;;;1.32;0.80;;;;;;;20.63;44.52;102282.04;1681715;84;20926;-76
2022/05/18 06:11:03;;;;;;;1.12;0.72;;;;;;;20.69;44.25;102286.66;1715570;83;20881;-76
2022/05/18 06:13:31;;;;;;;1.60;0.70;;;;;;;20.77;43.42;102285.95;1682605;83;20985;-76
2022/05/18 06:15:58;;;;;;;1.45;0.75;;;;;;;20.64;43.30;102287.25;1713502;82;21053;-76
2022/05/18 06:18:24;;;;;;;4.50;0.88;;;;;;;20.63;42.83;102285.53;1698120;82;20929;-76
2022/05/18 06:20:50;;;;;;;1.35;0.95;;;;;;;20.62;42.40;102286.89;1718259;83;26569;-77
2022/05/18 06:23:17;;;;;;;1.80;0.85;;;;;;;20.38;41.90;102286.73;1700487;83;21428;-77
2022/05/18 06:25:43;;;;;;;2.10;1.00;;;;;;;20.30;41.45;102287.83;1718872;83;20922;-77
2022/05/18 06:28:10;;;;;;;2.35;1.17;;;;;;;20.32;41.16;102292.59;1714210;83;20959;-77
2022/05/18 06:30:38;;;;;;;2.73;1.07;;;;;;;20.18;40.79;102289.09;1713707;82;21412;-77
2022/05/18 06:33:05;;;;;;;3.87;0.90;;;;;;;20.12;40.65;102269.56;1718162;83;20866;-77
2022/05/18 06:35:31;;;;;;;3.15;1.20;;;;;;;20.33;40.28;102293.86;1717109;83;20962;-77
2022/05/18 06:37:58;;;;;;;2.57;0.80;;;;;;;20.09;39.45;102292.84;1706514;83;21635;-77
2022/05/18 06:43:12;;;;;;;1.00;0.70;;;;;;;19.90;39.15;102299.52;1723283;81;20963;-77
2022/05/18 06:45:38;;;;;;;2.33;0.73;;;;;;;19.87;38.68;102297.42;1733964;81;21496;-77
2022/05/18 06:48:05;;;;;;;3.20;0.87;;;;;;;19.95;38.70;102296.76;1734530;81;21610;-77
2022/05/18 06:50:33;;;;;;;0.95;0.78;;;;;;;19.98;38.38;102297.98;1724280;81;21519;-77
2022/05/18 06:52:59;;;;;;;1.53;1.07;;;;;;;19.99;38.17;102299.70;1725098;81;21017;-77
2022/05/18 06:55:25;;;;;;;6.00;5.70;;;;;;;20.05;37.99;102306.96;1706252;82;21080;-77
2022/05/18 06:57:51;;;;;;;2.73;2.63;;;;;;;20.11;37.70;102308.09;1726354;81;20966;-77
2022/05/18 07:00:18;;;;;;;1.57;1.30;;;;;;;20.05;37.47;102304.78;1720356;82;21112;-77
2022/05/18 07:03:02;;;;;;;1.05;0.70;;;;;;;20.05;37.34;102308.27;1702931;82;21104;-77
2022/05/18 07:05:28;;;;;;;2.22;1.27;;;;;;;20.10;37.15;102303.75;1731351;81;21071;-77
2022/05/18 07:07:54;;;;;;;2.70;1.02;;;;;;;20.09;36.88;102313.84;1694992;83;21123;-77
2022/05/18 07:10:21;;;;;;;1.53;0.80;;;;;;;19.91;36.40;102305.17;1730453;81;21376;-77
2022/05/18 07:12:47;;;;;;;0.93;0.80;;;;;;;19.91;36.40;102305.17;1728871;82;21372;-77
2022/05/18 07:15:13;;;;;;;1.17;0.80;;;;;;;19.92;36.13;102312.14;1707966;82;21006;-77
2022/05/18 07:17:40;;;;;;;3.05;0.78;;;;;;;19.84;36.24;102303.63;1714071;82;21106;-77
2022/05/18 07:20:08;;;;;;;1.32;0.70;;;;;;;19.89;35.85;102306.98;1732048;82;21091;-77
2022/05/18 07:22:34;;;;;;;5.15;0.80;;;;;;;19.91;35.78;102306.48;1722998;82;21015;-77
2022/05/18 07:25:01;;;;;;;2.60;0.78;;;;;;;20.04;35.50;102308.31;1725840;81;21516;-77
2022/05/18 07:27:28;;;;;;;2.83;0.73;;;;;;;20.05;35.45;102303.02;1732009;81;20901;-77
2022/05/18 07:29:54;;;;;;;2.75;0.68;;;;;;;20.22;35.40;102300.36;1732434;82;21093;-78
2022/05/18 07:32:22;;;;;;;3.30;0.70;;;;;;;20.42;35.16;102296.70;1703743;82;21694;-78
2022/05/18 07:34:48;;;;;;;0.70;0.70;;;;;;;20.52;34.78;102300.77;1727722;81;20967;-78
2022/05/18 07:37:19;;;;;;;0.97;0.73;;;;;;;20.52;34.81;102299.45;1733703;81;21652;-78
2022/05/18 07:39:46;;;;;;;1.95;0.82;;;;;;;20.69;34.76;102294.99;1734970;81;20955;-78
2022/05/18 07:42:12;;;;;;;2.07;0.90;;;;;;;20.83;34.69;102300.64;1732036;81;21028;-78
2022/05/18 07:44:39;;;;;;;0.93;0.80;;;;;;;20.98;34.51;102296.21;1733308;81;22189;-78
2022/05/18 07:47:07;;;;;;;2.17;0.70;;;;;;;21.00;34.15;102298.34;1733212;81;21043;-78
2022/05/18 07:49:42;;;;;;;2.40;0.80;;;;;;;20.89;33.97;102301.77;1738340;81;20917;-78
2022/05/18 07:52:09;;;;;;;1.80;1.07;;;;;;;20.82;33.84;102297.61;1736704;81;21413;-78
2022/05/18 07:54:35;;;;;;;2.90;0.78;;;;;;;20.71;33.64;102299.30;1737778;81;21121;-78
2022/05/18 07:57:07;;;;;;;3.45;1.35;;;;;;;20.39;33.12;102302.05;1737848;81;20932;-78
2022/05/18 07:59:33;;;;;;;15.40;1.50;;;;;;;20.19;33.21;102295.20;1713949;82;20931;-79
2022/05/18 08:01:59;;;;;;;1.80;0.70;;;;;;;20.13;33.12;102288.36;1734953;81;20939;-78
2022/05/18 08:04:25;;;;;;;0.93;0.77;;;;;;;20.12;33.00;102301.08;1734654;82;20858;-78
2022/05/18 08:06:53;;;;;;;1.87;0.80;;;;;;;20.09;32.95;102295.91;1715848;82;21555;-78
2022/05/18 08:09:22;;;;;;;3.93;0.60;;;;;;;20.14;32.73;102286.14;1735315;81;20928;-78
2022/05/18 08:17:17;;;;;;;1.85;0.80;;;;;;;20.28;31.43;102290.50;1729858;81;20906;-77
2022/05/18 08:19:44;;;;;;;2.37;0.85;;;;;;;20.35;31.71;102291.19;1728450;82;20900;-77
2022/05/18 08:22:10;;;;;;;;;;;;;;;20.32;31.60;102293.90;1736608;82;20988;-77
2022/05/18 08:24:36;;;;;;;0.65;0.60;;;;;;;20.21;31.47;102287.69;1703523;83;20206;-77
2022/05/18 08:27:08;;;;;;;3.00;0.75;;;;;;;20.09;31.65;102288.90;1734982;81;21814;-77
2022/05/18 08:29:35;;;;;;;6.78;0.90;;;;;;;20.09;31.41;102286.72;1734401;81;21437;-77
2022/05/18 08:32:02;;;;;;;2.20;0.95;;;;;;;20.04;31.29;102296.50;1729815;81;20914;-77
2022/05/18 08:34:28;;;;;;;2.08;0.80;;;;;;;19.81;31.08;102293.20;1736596;81;21255;-77
2022/05/18 08:37:03;;;;;;;1.10;0.72;;;;;;;19.71;31.17;102290.45;1727134;82;21047;-77
2022/05/18 08:39:29;;;;;;;5.95;0.90;;;;;;;19.78;31.13;102288.03;1720880;82;21046;-77
2022/05/18 08:41:57;;;;;;;2.47;0.90;;;;;;;19.77;31.10;102285.00;1733839;81;21035;-78
2022/05/18 08:44:32;;;;;;;4.03;0.90;;;;;;;19.85;30.97;102284.34;1734685;81;21042;-78
2022/05/18 08:47:12;;;;;;;2.70;0.75;;;;;;;19.87;30.84;102285.16;1712183;81;21413;-78
2022/05/18 08:49:58;;;;;;;3.30;0.75;;;;;;;19.97;30.98;102287.08;1689446;82;21519;-78
2022/05/18 08:52:55;;;;;;;1.87;0.42;;;;;;;20.02;30.82;102288.66;1735092;81;21596;-77
2022/05/18 08:55:41;;;;;;;3.43;0.67;;;;;;;19.94;30.51;102288.47;1732304;81;21663;-77
2022/05/18 08:58:20;;;;;;;0.90;0.70;;;;;;;19.91;30.71;102281.55;1733465;81;21090;-77
2022/05/18 09:00:54;;;;;;;3.75;0.70;;;;;;;19.99;30.61;102286.58;1723436;82;21056;-77
2022/05/18 09:03:25;;;;;;;1.27;0.60;;;;;;;20.00;30.49;102285.22;1729935;81;21103;-77
2022/05/18 09:06:18;;;;;;;0.82;0.60;;;;;;;19.87;30.15;102291.72;1706549;82;21042;-77
2022/05/18 09:11:47;;;;;;;1.22;0.50;;;;;;;19.45;30.19;102289.34;1733606;81;20992;-77
2022/05/18 09:14:21;;;;;;;0.93;0.68;;;;;;;19.31;30.04;102284.91;1733586;81;21445;-77
2022/05/18 09:17:36;;;;;;;1.70;0.80;;;;;;;19.17;29.94;102287.91;1736446;81;22135;-76
2022/05/18 09:20:24;;;;;;;3.90;0.57;;;;;;;19.03;29.88;102287.39;1685248;83;21655;-80
2022/05/18 09:23:04;;;;;;;1.25;0.68;;;;;;;18.84;29.81;102286.09;1699981;82;21067;-80
2022/05/18 09:26:15;;;;;;;3.10;0.80;;;;;;;18.66;29.68;102289.18;1669881;85;21135;-74
2022/05/18 09:28:55;;;;;;;1.42;0.62;;;;;;;18.52;29.65;102286.39;1671333;85;21056;-75
2022/05/18 09:31:39;;;;;;;1.10;0.60;;;;;;;18.37;29.55;102285.41;1700804;83;20920;-75
2022/05/18 09:34:20;;;;;;;5.30;0.68;;;;;;;18.30;29.57;102286.88;1698156;83;21003;-75
2022/05/18 09:37:22;;;;;;;3.67;0.70;;;;;;;18.13;29.32;102287.27;1699432;82;21567;-75
2022/05/18 09:39:53;;;;;;;5.62;0.85;;;;;;;17.92;29.36;102285.94;1697794;84;20944;-74
2022/05/18 09:42:24;;;;;;;2.05;0.60;;;;;;;17.79;29.31;102283.14;1680952;83;21051;-74
2022/05/18 09:45:10;;;;;;;0.50;0.40;;;;;;;17.61;29.25;102284.80;1669905;84;20995;-74
2022/05/18 09:47:48;;;;;;;3.90;0.65;;;;;;;17.55;29.25;102276.61;1700926;84;22038;-75
2022/05/18 09:50:15;;;;;;;1.00;0.65;;;;;;;17.52;29.31;102278.84;1703231;84;20896;-75
2022/05/18 09:52:44;;;;;;;1.17;0.65;;;;;;;17.60;29.27;102275.22;1702144;82;20885;-75
2022/05/18 09:55:15;;;;;;;1.65;0.70;;;;;;;17.67;29.23;102272.50;1672375;85;20940;-75
2022/05/18 09:58:08;;;;;;;0.55;0.30;;;;;;;17.72;29.18;102270.63;1696474;83;20957;-75
2022/05/18 10:00:37;;;;;;;1.85;0.95;;;;;;;17.75;29.14;102268.39;1678415;85;21044;-75
2022/05/18 10:09:01;;;;;;;2.80;0.80;;;;;;;17.84;29.05;102265.59;1681046;84;21023;-75
2022/05/18 10:11:33;;;;;;;1.52;0.50;;;;;;;17.90;28.94;102267.23;1680233;84;21075;-75
2022/05/18 10:14:11;;;;;;;3.08;0.50;;;;;;;17.90;29.00;102264.17;1674456;84;21047;-75
2022/05/18 10:16:48;;;;;;;3.17;0.90;;;;;;;17.87;28.90;102266.84;1681359;84;20916;-75
2022/05/18 10:19:21;;;;;;;2.17;0.88;;;;;;;17.88;29.02;102258.11;1670407;83;21015;-75
2022/05/18 10:21:56;;;;;;;0.80;0.37;;;;;;;17.94;28.96;102247.52;1704512;83;21092;-75
2022/05/18 10:24:27;;;;;;;3.10;0.68;;;;;;;17.96;28.94;102244.86;1679083;83;20987;-75
2022/05/18 10:27:20;;;;;;;2.85;0.68;;;;;;;18.10;28.95;102248.92;1736411;82;21035;-75
2022/05/18 10:30:16;;;;;;;4.58;1.10;;;;;;;18.16;28.89;102247.48;1728100;82;21072;-75
2022/05/18 10:33:22;;;;;;;1.87;0.70;;;;;;;18.05;28.73;102240.75;1698731;83;21005;-75
2022/05/18 10:35:51;;;;;;;;;;;;;;;17.97;28.79;102239.59;1734024;82;21070;-75
2022/05/18 10:38:28;;;;;;;4.10;0.95;;;;;;;17.94;28.66;102229.19;1732522;82;20134;-75
2022/05/18 10:41:07;;;;;;;;;;;;;;;17.96;28.82;102223.92;1733491;82;20971;-76
2022/05/18 10:43:55;;;;;;;3.10;0.62;;;;;;;18.00;28.69;102226.45;1731006;82;20185;-75
2022/05/18 10:46:42;;;;;;;1.85;0.40;;;;;;;18.04;28.82;102220.25;1730149;82;21067;-75
2022/05/18 10:49:23;;;;;;;3.17;0.60;;;;;;;18.15;28.85;102212.17;1730818;82;21024;-75
2022/05/18 10:51:49;;;;;;;2.27;0.42;;;;;;;18.31;28.83;102207.42;1731612;82;21004;-75
2022/05/18 10:54:28;;;;;;;2.10;0.70;;;;;;;18.46;28.76;102208.38;1730427;82;20991;-75
2022/05/18 10:57:21;;;;;;;4.28;0.85;;;;;;;18.52;28.67;102211.72;1730918;82;21058;-75
2022/05/18 11:00:20;;;;;;;0.98;0.68;;;;;;;18.57;28.68;102205.52;1717010;81;21516;-74
2022/05/18 11:03:27;;;;;;;6.00;1.35;;;;;;;18.64;28.67;102204.05;1730149;82;21024;-75
2022/05/18 11:06:08;;;;;;;3.67;0.70;;;;;;;18.57;28.59;102205.06;1734951;82;21444;-75
2022/05/18 11:08:34;;;;;;;5.33;1.00;;;;;;;18.55;28.64;102200.76;1729967;82;21022;-75
2022/05/18 11:11:18;;;;;;;2.02;0.93;;;;;;;18.58;28.66;102193.69;1731867;82;20953;-75
2022/05/18 11:14:11;;;;;;;5.15;0.98;;;;;;;18.60;28.55;102193.65;1649607;82;21064;-75
2022/05/18 11:16:59;;;;;;;1.55;0.80;;;;;;;18.56;28.48;102182.83;1727505;82;21360;-75
2022/05/18 11:19:35;;;;;;;;;;;;;;;18.44;28.50;102182.22;1717464;82;20986;-75
2022/05/18 11:22:29;;;;;;;3.33;0.90;;;;;;;18.47;28.29;102172.98;1697542;83;20102;-75
2022/05/18 11:25:12;;;;;;;1.02;0.90;;;;;;;18.41;28.44;102166.58;1695049;84;21086;-75
2022/05/18 11:27:59;;;;;;;2.17;0.70;;;;;;;18.37;28.43;102162.76;1671648;84;21574;-75
2022/05/18 11:30:43;;;;;;;6.17;0.72;;;;;;;18.43;28.51;102154.76;1690725;84;20993;-75
2022/05/18 11:33:36;;;;;;;2.37;0.80;;;;;;;18.55;28.46;102158.84;1700615;83;21028;-75
2022/05/18 11:36:39;;;;;;;8.40;2.12;;;;;;;18.62;28.46;102156.52;1666138;84;21290;-75
2022/05/18 11:39:14;;;;;;;4.15;0.65;;;;;;;18.70;28.48;102154.12;1698975;83;20984;-75
2022/05/18 11:41:58;;;;;;;1.57;0.80;;;;;;;18.82;28.43;102149.84;1704410;83;21360;-75
2022/05/18 11:44:40;;;;;;;4.00;0.78;;;;;;;18.95;28.47;102149.08;1702861;83;21346;-75
2022/05/18 11:47:30;;;;;;;2.87;0.80;;;;;;;18.99;28.40;102144.61;1701487;83;21860;-75
2022/05/18 11:50:40;;;;;;;2.08;0.70;;;;;;;19.03;28.38;102137.94;1700517;83;20937;-75
2022/05/18 11:53:20;;;;;;;4.55;0.70;;;;;;;19.11;28.39;102137.73;1650234;86;20993;-75
2022/05/18 11:56:01;;;;;;;3.83;0.68;;;;;;;19.20;28.26;102137.94;1694880;84;21371;-75
2022/05/18 11:59:00;;;;;;;1.07;0.55;;;;;;;19.24;28.25;102144.78;1681243;84;21338;-74
2022/05/18 12:01:55;;;;;;;2.17;0.70;;;;;;;19.25;28.18;102146.05;1671116;84;21127;-74
2022/05/18 12:04:47;;;;;;;1.90;0.70;;;;;;;19.20;28.12;102138.80;1700543;83;21591;-74
2022/05/18 12:07:34;;;;;;;3.47;0.70;;;;;;;19.15;28.08;102135.44;1702156;83;21091;-74
2022/05/18 12:10:29;;;;;;;3.65;1.05;;;;;;;19.13;28.08;102133.31;1677767;83;20976;-74
2022/05/18 12:13:07;;;;;;;0.93;0.75;;;;;;;19.22;28.06;102134.82;1701326;83;20995;-74